Time;durP1;ratioP1;P1;durP2;ratioP2;P2;SDS_P1;SDS_P2;PMS_P1;PMS_P2;Temp;Humidity;BMP_temperature;BMP_pressure;BME280_temperature;BME280_humidity;BME280_pressure;Samples;Min_cycle;Max_cycle;Signal;HPM_P1;HPM_P2
2022/09/29 00:00:25;;;;;;;10.27;3.72;;;;;;;16.90;100.00;93565.72;5071139;28;20220;-63
2022/09/29 00:02:52;;;;;;;7.47;3.90;;;;;;;16.60;100.00;93590.91;5070838;28;20290;-62
2022/09/29 00:05:17;;;;;;;6.97;3.45;;;;;;;16.76;100.00;93586.22;5070723;28;20223;-64
2022/09/29 00:07:43;;;;;;;6.40;3.40;;;;;;;17.07;100.00;93613.94;5070664;28;20590;-64
2022/09/29 00:10:08;;;;;;;7.00;3.53;;;;;;;17.04;100.00;93621.25;5070654;28;20299;-62
2022/09/29 00:12:34;;;;;;;7.53;3.47;;;;;;;16.97;100.00;93615.31;5070897;28;20716;-61
2022/09/29 00:15:00;;;;;;;7.35;3.45;;;;;;;16.85;100.00;93596.31;5090884;22;20630;-61
2022/09/29 00:17:25;;;;;;;7.97;3.63;;;;;;;16.92;100.00;93589.41;5090851;28;20211;-63
2022/09/29 00:19:50;;;;;;;5.28;3.00;;;;;;;16.99;100.00;93583.31;5090859;28;20720;-64
2022/09/29 00:22:16;;;;;;;4.72;3.15;;;;;;;17.24;100.00;93629.78;5090872;28;20258;-62
2022/09/29 00:24:41;;;;;;;8.63;2.85;;;;;;;17.21;100.00;93658.44;5091362;28;20204;-63
2022/09/29 00:27:07;;;;;;;3.00;2.67;;;;;;;16.97;100.00;93666.66;5090672;28;20192;-62
2022/09/29 00:29:32;;;;;;;2.85;2.10;;;;;;;16.71;100.00;93652.75;5090413;28;20211;-65
2022/09/29 00:31:58;;;;;;;4.25;2.75;;;;;;;16.85;100.00;93653.56;5090754;28;20183;-61
2022/09/29 00:34:23;;;;;;;4.22;2.42;;;;;;;16.98;100.00;93651.06;5090821;28;20204;-64
2022/09/29 00:36:49;;;;;;;7.07;3.00;;;;;;;17.04;100.00;93644.34;5090859;28;20673;-61
2022/09/29 00:39:21;;;;;;;3.88;2.58;;;;;;;16.91;100.00;93624.56;5073021;28;20211;-62
2022/09/29 00:41:46;;;;;;;10.82;2.88;;;;;;;16.93;100.00;93607.19;5094154;28;20573;-62
2022/09/29 00:44:11;;;;;;;6.38;2.80;;;;;;;16.83;100.00;93613.69;5093930;28;20261;-63
2022/09/29 00:46:56;;;;;;;7.32;2.80;;;;;;;16.38;100.00;93589.41;5094014;28;20222;-60
2022/09/29 00:49:24;;;;;;;7.35;2.63;;;;;;;16.26;100.00;93578.09;5093864;28;20298;-61
2022/09/29 00:51:56;;;;;;;3.70;2.58;;;;;;;16.53;100.00;93585.75;5093921;28;20668;-62
2022/09/29 00:54:28;;;;;;;6.47;2.85;;;;;;;16.76;100.00;93608.53;5093801;28;20222;-61
2022/09/29 00:56:55;;;;;;;7.90;3.17;;;;;;;16.67;100.00;93584.00;5094044;28;20207;-62
2022/09/29 00:59:31;;;;;;;4.78;2.92;;;;;;;16.46;100.00;93586.69;5093978;28;20298;-62
2022/09/29 01:01:57;;;;;;;11.60;3.03;;;;;;;16.25;100.00;93558.56;5093982;28;20568;-62
2022/09/29 01:04:23;;;;;;;8.25;2.85;;;;;;;16.44;100.00;93579.16;5093754;28;20208;-63
2022/09/29 01:06:52;;;;;;;3.80;2.63;;;;;;;16.68;100.00;93606.91;5075725;28;20188;-61
2022/09/29 01:09:22;;;;;;;4.32;2.47;;;;;;;16.82;100.00;93640.34;5094037;28;20211;-61
2022/09/29 01:11:51;;;;;;;3.75;2.60;;;;;;;16.83;100.00;93649.63;5093540;28;20211;-63
2022/09/29 01:14:19;;;;;;;5.80;2.83;;;;;;;16.87;100.00;93651.59;5093833;28;20356;-61
2022/09/29 01:16:44;;;;;;;5.50;2.65;;;;;;;16.73;100.00;93630.25;5093666;28;20188;-62
2022/09/29 01:19:35;;;;;;;6.30;2.70;;;;;;;16.57;100.00;93630.56;5093929;28;20761;-63
2022/09/29 01:22:26;;;;;;;3.72;2.65;;;;;;;16.61;100.00;93613.81;5093540;28;20192;-61
2022/09/29 01:25:10;;;;;;;5.90;3.08;;;;;;;16.60;100.00;93619.91;5090941;28;20295;-61
2022/09/29 01:28:20;;;;;;;4.40;2.45;;;;;;;16.84;100.00;93618.63;5093278;28;20184;-61
2022/09/29 01:31:11;;;;;;;8.70;2.78;;;;;;;16.94;100.00;93631.91;4975510;28;20316;-62
2022/09/29 01:33:48;;;;;;;6.35;2.85;;;;;;;16.95;100.00;93628.31;4991528;28;20690;-63
2022/09/29 01:36:28;;;;;;;4.97;2.70;;;;;;;16.79;100.00;93585.84;5068364;28;20237;-61
2022/09/29 01:39:02;;;;;;;7.47;3.22;;;;;;;16.88;100.00;93604.44;5093591;28;20256;-62
2022/09/29 01:41:27;;;;;;;2.83;2.35;;;;;;;17.00;100.00;93659.38;5093438;28;20188;-61
2022/09/29 01:44:01;;;;;;;4.95;2.28;;;;;;;16.87;100.00;93699.63;5100655;22;20224;-63
2022/09/29 01:46:37;;;;;;;8.80;2.40;;;;;;;16.63;100.00;93624.66;5093133;28;20199;-61
2022/09/29 01:49:03;;;;;;;5.57;2.30;;;;;;;16.58;100.00;93621.09;5093119;28;20196;-62
2022/09/29 01:51:51;;;;;;;3.22;2.25;;;;;;;16.54;100.00;93619.91;5091769;28;20192;-62
2022/09/29 01:54:24;;;;;;;3.53;2.13;;;;;;;16.63;100.00;93629.81;5093253;28;20208;-62
2022/09/29 01:57:00;;;;;;;4.95;2.55;;;;;;;16.80;100.00;93625.13;5092940;28;20188;-62
2022/09/29 01:59:52;;;;;;;5.82;2.47;;;;;;;16.93;100.00;93639.78;5093406;28;20253;-62
2022/09/29 02:02:36;;;;;;;6.15;2.40;;;;;;;17.00;100.00;93661.94;5080278;28;20207;-62
2022/09/29 02:05:07;;;;;;;3.92;2.05;;;;;;;16.92;100.00;93633.06;5092820;28;20218;-61
2022/09/29 02:07:36;;;;;;;4.32;2.20;;;;;;;17.02;100.00;93661.72;5092842;28;20188;-62
2022/09/29 02:10:11;;;;;;;4.53;2.70;;;;;;;16.97;100.00;93651.25;5092796;28;20211;-61
2022/09/29 02:12:41;;;;;;;6.60;2.53;;;;;;;16.81;100.00;93625.94;5074659;28;20210;-61
2022/09/29 02:15:11;;;;;;;3.75;2.50;;;;;;;16.72;100.00;93623.50;5092516;28;20208;-62
2022/09/29 02:17:42;;;;;;;3.17;2.33;;;;;;;16.94;100.00;93649.88;5092839;28;20183;-63
2022/09/29 02:20:10;;;;;;;9.18;2.28;;;;;;;16.95;100.00;93653.22;5092889;28;20212;-63
2022/09/29 02:22:37;;;;;;;2.88;2.20;;;;;;;16.97;100.00;93646.91;5092640;28;20666;-62
2022/09/29 02:25:04;;;;;;;4.10;2.00;;;;;;;16.94;100.00;93667.84;5074396;28;20295;-63
2022/09/29 02:27:32;;;;;;;5.60;2.55;;;;;;;16.75;100.00;93633.41;5092586;28;20188;-62
2022/09/29 02:29:58;;;;;;;3.05;2.30;;;;;;;16.52;100.00;93616.75;5092703;28;20256;-61
2022/09/29 02:32:24;;;;;;;4.60;2.47;;;;;;;16.41;100.00;93627.50;5092421;28;20212;-63
2022/09/29 02:34:52;;;;;;;3.63;2.22;;;;;;;16.48;100.00;93682.22;5092167;28;20215;-63
2022/09/29 02:37:35;;;;;;;6.13;2.03;;;;;;;16.55;100.00;93711.28;5092260;28;20185;-62
2022/09/29 02:40:10;;;;;;;3.20;1.95;;;;;;;16.32;100.00;93659.44;5092765;28;20632;-62
2022/09/29 02:42:54;;;;;;;4.90;2.50;;;;;;;16.33;100.00;93636.16;5092218;28;20579;-60
2022/09/29 02:46:04;;;;;;;3.78;2.40;;;;;;;16.23;100.00;93630.56;5074034;28;20279;-61
2022/09/29 02:48:38;;;;;;;3.33;1.80;;;;;;;16.47;100.00;93688.31;5092137;28;20224;-62
2022/09/29 02:51:38;;;;;;;4.57;2.35;;;;;;;16.22;100.00;93670.00;5092187;28;20190;-62
2022/09/29 02:54:34;;;;;;;4.38;2.78;;;;;;;16.06;100.00;93652.34;5050898;28;20224;-61
2022/09/29 02:57:19;;;;;;;2.97;2.35;;;;;;;15.96;100.00;93631.38;5032928;28;20200;-61
2022/09/29 03:00:08;;;;;;;6.47;2.30;;;;;;;16.07;100.00;93673.66;5073788;28;20215;-61
2022/09/29 03:02:35;;;;;;;5.72;2.67;;;;;;;15.87;100.00;93645.31;5091322;28;20271;-60
2022/09/29 03:05:04;;;;;;;5.70;2.58;;;;;;;15.68;100.00;93597.28;5092214;28;20737;-62
2022/09/29 03:07:30;;;;;;;9.60;2.70;;;;;;;15.98;100.00;93626.84;5091879;28;20196;-60
2022/09/29 03:09:55;;;;;;;7.32;3.45;;;;;;;16.11;100.00;93662.84;5092049;28;20265;-61
2022/09/29 03:12:21;;;;;;;6.43;2.83;;;;;;;15.96;100.00;93619.34;5091448;28;20216;-61
2022/09/29 03:14:46;;;;;;;5.03;2.53;;;;;;;16.04;100.00;93623.53;5091817;28;20242;-61
2022/09/29 03:17:13;;;;;;;5.13;3.63;;;;;;;15.89;100.00;93607.47;5073666;28;20200;-61
2022/09/29 03:19:38;;;;;;;3.17;2.45;;;;;;;15.72;100.00;93583.91;5091707;28;20199;-62
2022/09/29 03:22:03;;;;;;;5.30;2.65;;;;;;;15.76;100.00;93581.75;5056775;28;20188;-60
2022/09/29 03:24:30;;;;;;;5.70;2.20;;;;;;;15.70;100.00;93587.63;5091773;28;20196;-62
2022/09/29 03:26:56;;;;;;;5.03;2.63;;;;;;;15.87;100.00;93622.25;5091503;28;20195;-62
2022/09/29 03:29:21;;;;;;;5.30;3.33;;;;;;;15.84;100.00;93632.88;5091876;28;20200;-61
2022/09/29 03:31:47;;;;;;;3.17;2.30;;;;;;;15.70;100.00;93636.31;5091371;28;20188;-61
2022/09/29 03:34:12;;;;;;;7.03;2.63;;;;;;;15.77;100.00;93637.16;5091417;28;20252;-61
2022/09/29 03:36:40;;;;;;;10.35;3.20;;;;;;;15.35;100.00;93580.84;5091586;28;20676;-61
2022/09/29 03:39:05;;;;;;;3.28;2.55;;;;;;;15.55;100.00;93607.44;5091229;28;20200;-62
2022/09/29 03:41:31;;;;;;;3.88;2.92;;;;;;;15.79;100.00;93630.09;5091094;28;20336;-62
2022/09/29 03:43:56;;;;;;;6.80;4.47;;;;;;;15.86;100.00;93631.72;5091066;28;20215;-63
2022/09/29 03:46:22;;;;;;;9.02;3.33;;;;;;;16.01;100.00;93654.69;5091335;28;20666;-62
2022/09/29 03:48:47;;;;;;;5.30;2.55;;;;;;;15.67;100.00;93601.63;5091028;28;20191;-60
2022/09/29 03:51:12;;;;;;;6.70;2.72;;;;;;;15.55;100.00;93602.31;5091525;28;20192;-60
2022/09/29 03:53:38;;;;;;;5.75;2.53;;;;;;;15.46;100.00;93588.03;5091069;28;20218;-60
2022/09/29 03:56:04;;;;;;;6.93;2.92;;;;;;;15.62;100.00;93611.63;5090976;28;20233;-60
2022/09/29 03:58:30;;;;;;;4.40;3.35;;;;;;;15.63;100.00;93610.66;5090985;28;20274;-63
2022/09/29 04:00:55;;;;;;;7.55;3.05;;;;;;;15.76;100.00;93613.31;5091203;28;20184;-64
2022/09/29 04:03:21;;;;;;;9.55;3.42;;;;;;;15.94;100.00;93617.94;5091027;28;20541;-62
2022/09/29 04:05:47;;;;;;;5.28;3.50;;;;;;;15.67;100.00;93593.94;5091207;28;20184;-63
2022/09/29 04:08:13;;;;;;;5.60;3.53;;;;;;;15.15;100.00;93603.69;5072611;28;20275;-63
2022/09/29 04:10:40;;;;;;;4.20;3.70;;;;;;;15.06;100.00;93608.16;5090764;28;20239;-62
2022/09/29 04:13:06;;;;;;;7.05;4.13;;;;;;;15.23;100.00;93606.13;5090828;28;20208;-63
2022/09/29 04:15:32;;;;;;;6.80;3.80;;;;;;;15.52;100.00;93633.41;5093108;28;20278;-61
2022/09/29 04:17:58;;;;;;;4.53;3.53;;;;;;;15.11;100.00;93615.28;5094292;28;20191;-61
2022/09/29 04:20:23;;;;;;;4.60;3.53;;;;;;;14.67;100.00;93619.72;5094162;28;20654;-61
2022/09/29 04:22:49;;;;;;;9.95;4.40;;;;;;;14.72;100.00;93602.09;5094206;28;20211;-60
2022/09/29 04:25:15;;;;;;;10.02;4.22;;;;;;;14.63;100.00;93605.72;5094438;28;20199;-62
2022/09/29 04:27:40;;;;;;;11.38;4.53;;;;;;;14.70;100.00;93612.50;5094038;28;20187;-63
2022/09/29 04:30:06;;;;;;;9.30;3.72;;;;;;;14.99;100.00;93626.97;5093942;28;20207;-63
2022/09/29 04:32:32;;;;;;;7.43;3.63;;;;;;;15.26;100.00;93635.69;5093961;28;20208;-64
2022/09/29 04:34:58;;;;;;;5.95;4.05;;;;;;;15.26;100.00;93633.16;5093974;28;20211;-63
2022/09/29 04:37:24;;;;;;;11.95;3.92;;;;;;;15.21;100.00;93630.34;5093936;28;20192;-62
2022/09/29 04:39:51;;;;;;;5.68;4.13;;;;;;;14.90;100.00;93630.63;5075643;28;20214;-64
2022/09/29 04:42:17;;;;;;;11.10;4.10;;;;;;;15.10;100.00;93644.44;5093767;28;20192;-63
2022/09/29 04:44:42;;;;;;;6.95;4.68;;;;;;;15.29;100.00;93658.41;5093947;28;20203;-64
2022/09/29 04:47:08;;;;;;;8.73;3.70;;;;;;;15.36;100.00;93646.44;5093966;28;20611;-63
2022/09/29 04:49:34;;;;;;;3.70;3.05;;;;;;;15.45;100.00;93635.13;5093726;28;20211;-61
2022/09/29 04:51:59;;;;;;;10.27;4.55;;;;;;;15.21;100.00;93615.75;5093772;28;20184;-63
2022/09/29 04:54:29;;;;;;;8.48;4.50;;;;;;;14.91;100.00;93625.31;5094246;28;20222;-62
2022/09/29 04:56:54;;;;;;;8.27;4.25;;;;;;;14.85;100.00;93630.38;5093758;28;20279;-62
2022/09/29 04:59:20;;;;;;;5.63;3.22;;;;;;;15.14;100.00;93656.69;5094180;28;20200;-60
2022/09/29 05:01:45;;;;;;;7.30;3.70;;;;;;;15.25;100.00;93657.19;5075539;28;20227;-61
2022/09/29 05:04:12;;;;;;;9.27;3.53;;;;;;;15.25;100.00;93652.81;5075279;28;20644;-62
2022/09/29 05:06:38;;;;;;;6.55;3.67;;;;;;;15.18;100.00;93631.50;5093603;28;20253;-61
2022/09/29 05:09:07;;;;;;;10.52;4.35;;;;;;;15.48;100.00;93647.56;5091697;28;20223;-63
2022/09/29 05:11:32;;;;;;;10.38;3.95;;;;;;;15.54;100.00;93662.19;5093608;28;20195;-62
2022/09/29 05:13:57;;;;;;;6.95;4.07;;;;;;;15.51;100.00;93691.56;5093394;28;20212;-62
2022/09/29 05:16:24;;;;;;;14.48;4.28;;;;;;;15.32;100.00;93670.81;5093558;28;20184;-64
2022/09/29 05:18:50;;;;;;;5.72;3.33;;;;;;;15.13;100.00;93616.69;5075369;28;20239;-61
2022/09/29 05:21:16;;;;;;;12.25;4.68;;;;;;;15.34;100.00;93650.94;5075063;28;20203;-60
2022/09/29 05:23:42;;;;;;;13.18;3.85;;;;;;;15.21;100.00;93635.47;5093451;28;20196;-60
2022/09/29 05:26:09;;;;;;;11.55;4.15;;;;;;;15.13;100.00;93632.03;5092882;28;20259;-61
2022/09/29 05:28:35;;;;;;;6.82;3.88;;;;;;;15.04;100.00;93617.78;5093518;28;20283;-65
2022/09/29 05:31:02;;;;;;;9.70;4.18;;;;;;;15.34;100.00;93643.25;5093169;28;20210;-61
2022/09/29 05:33:28;;;;;;;6.07;3.33;;;;;;;15.51;100.00;93642.88;5093249;28;20308;-62
2022/09/29 05:35:54;;;;;;;9.40;4.40;;;;;;;15.65;100.00;93644.56;5093176;28;20325;-63
2022/09/29 05:38:19;;;;;;;10.85;3.78;;;;;;;15.53;100.00;93599.16;5093341;28;20184;-62
2022/09/29 05:40:45;;;;;;;8.30;4.30;;;;;;;15.47;100.00;93621.16;5093450;28;20193;-62
2022/09/29 05:43:10;;;;;;;9.95;3.50;;;;;;;15.60;100.00;93625.59;5093123;28;20184;-62
2022/09/29 05:45:36;;;;;;;6.95;2.80;;;;;;;15.56;100.00;93619.25;5093044;28;20204;-61
2022/09/29 05:48:01;;;;;;;13.60;3.97;;;;;;;15.57;100.00;93641.34;5093030;28;20176;-63
2022/09/29 05:50:27;;;;;;;7.97;3.38;;;;;;;15.76;100.00;93697.88;5092834;28;20562;-62
2022/09/29 05:52:53;;;;;;;10.75;4.30;;;;;;;15.69;100.00;93665.50;5074621;28;20298;-62
2022/09/29 05:55:18;;;;;;;10.80;3.85;;;;;;;15.77;100.00;93683.28;5092795;28;20287;-63
2022/09/29 05:57:48;;;;;;;7.38;3.70;;;;;;;15.96;100.00;93669.81;5092555;28;20185;-62
2022/09/29 06:00:13;;;;;;;9.52;4.13;;;;;;;16.10;100.00;93698.94;5092186;28;20208;-61
2022/09/29 06:02:39;;;;;;;8.65;3.53;;;;;;;16.11;100.00;93724.38;5092671;28;20200;-62
2022/09/29 06:05:04;;;;;;;9.60;4.00;;;;;;;16.17;100.00;93741.59;5093159;28;20200;-63
2022/09/29 06:07:30;;;;;;;6.63;3.10;;;;;;;16.34;100.00;93735.19;5092646;28;20188;-62
2022/09/29 06:09:55;;;;;;;5.38;3.15;;;;;;;16.41;100.00;93738.59;5092882;28;20204;-62
2022/09/29 06:12:21;;;;;;;11.25;2.95;;;;;;;16.41;100.00;93758.31;5092546;28;20212;-60
2022/09/29 06:14:46;;;;;;;13.10;4.65;;;;;;;16.44;100.00;93778.50;5074416;28;20723;-62
2022/09/29 06:17:12;;;;;;;7.00;4.00;;;;;;;16.47;100.00;93773.78;5074453;28;20200;-61
2022/09/29 06:19:37;;;;;;;14.68;4.22;;;;;;;16.51;100.00;93769.09;5092461;28;20203;-63
2022/09/29 06:22:02;;;;;;;8.15;3.78;;;;;;;16.85;100.00;93778.59;5092502;28;20192;-63
2022/09/29 06:24:28;;;;;;;13.60;3.95;;;;;;;16.81;100.00;93803.81;5074126;28;20196;-63
2022/09/29 06:26:53;;;;;;;6.70;3.17;;;;;;;16.74;100.00;93775.56;5074356;28;20659;-64
2022/09/29 06:29:19;;;;;;;5.72;3.47;;;;;;;16.65;100.00;93768.19;5092595;28;20685;-61
2022/09/29 06:31:44;;;;;;;5.15;3.38;;;;;;;16.97;100.00;93795.06;5092388;28;20567;-61
2022/09/29 06:34:10;;;;;;;9.02;2.97;;;;;;;17.12;100.00;93824.75;5092425;28;20580;-61
2022/09/29 06:39:28;;;;;;;7.85;2.67;;;;;;;17.24;100.00;93807.03;5092428;28;20287;-64
2022/09/29 06:41:55;;;;;;;10.10;3.70;;;;;;;17.41;100.00;93806.50;5092161;28;20259;-63
2022/09/29 06:44:23;;;;;;;10.40;5.38;;;;;;;17.58;100.00;93828.34;5091877;28;20204;-62
2022/09/29 06:46:50;;;;;;;8.35;3.65;;;;;;;17.78;100.00;93845.59;5091977;28;20249;-62
2022/09/29 06:49:16;;;;;;;9.95;3.30;;;;;;;17.87;100.00;93840.13;5073676;28;20211;-63
2022/09/29 06:51:42;;;;;;;8.35;3.45;;;;;;;17.97;100.00;93848.25;5091912;28;20184;-61
2022/09/29 06:54:10;;;;;;;7.82;3.03;;;;;;;17.71;100.00;93809.63;5091910;28;20227;-61
2022/09/29 06:56:35;;;;;;;7.72;3.30;;;;;;;17.73;100.00;93828.22;5073697;28;20188;-60
2022/09/29 06:59:00;;;;;;;9.50;3.80;;;;;;;17.89;100.00;93815.00;5091914;28;20211;-62
2022/09/29 07:01:26;;;;;;;7.45;2.85;;;;;;;18.19;100.00;93884.91;5091712;28;20202;-61
2022/09/29 07:03:51;;;;;;;5.60;3.45;;;;;;;18.20;100.00;93889.84;5091719;28;20253;-62
2022/09/29 07:06:17;;;;;;;9.60;3.30;;;;;;;17.93;100.00;93813.63;5091772;28;20245;-62
2022/09/29 07:08:42;;;;;;;13.05;3.80;;;;;;;17.83;100.00;93825.28;5091213;28;20585;-64
2022/09/29 07:11:09;;;;;;;10.85;3.88;;;;;;;17.82;100.00;93816.75;5091047;28;20192;-63
2022/09/29 07:13:35;;;;;;;8.65;3.70;;;;;;;18.00;100.00;93839.34;5091412;28;20214;-62
2022/09/29 07:16:10;;;;;;;6.57;2.20;;;;;;;17.94;100.00;93878.69;5091588;28;20199;-63
2022/09/29 07:18:38;;;;;;;3.70;2.28;;;;;;;18.09;100.00;93869.84;5091490;28;20211;-63
2022/09/29 07:21:05;;;;;;;5.78;2.53;;;;;;;17.99;100.00;93861.72;5073305;28;20198;-62
2022/09/29 07:23:32;;;;;;;4.32;2.72;;;;;;;18.38;100.00;93902.97;5091439;28;20184;-63
2022/09/29 07:25:57;;;;;;;6.38;2.53;;;;;;;18.55;100.00;93864.00;5073303;28;20204;-63
2022/09/29 07:28:23;;;;;;;5.78;2.80;;;;;;;18.51;100.00;93857.66;5091223;28;20178;-63
2022/09/29 07:31:07;;;;;;;8.88;2.88;;;;;;;18.52;100.00;93859.25;5073136;28;20276;-63
2022/09/29 07:33:32;;;;;;;7.38;2.60;;;;;;;18.36;100.00;93814.09;5091160;28;20208;-63
2022/09/29 07:35:59;;;;;;;5.10;2.70;;;;;;;18.48;100.00;93807.38;5091244;28;20241;-63
2022/09/29 07:38:29;;;;;;;9.68;2.97;;;;;;;18.47;100.00;93820.44;5091369;28;20192;-63
2022/09/29 07:41:09;;;;;;;4.95;3.00;;;;;;;18.74;100.00;93855.50;5091331;28;20180;-63
2022/09/29 07:43:35;;;;;;;23.58;16.13;;;;;;;18.82;100.00;93865.59;5091152;28;20194;-63
2022/09/29 07:46:00;;;;;;;9.77;3.67;;;;;;;18.92;100.00;93897.69;5073003;28;20199;-64
2022/09/29 07:48:27;;;;;;;6.65;2.97;;;;;;;19.05;100.00;93915.72;5091055;28;20581;-64
2022/09/29 07:51:00;;;;;;;15.23;7.78;;;;;;;19.06;100.00;93930.19;5091132;28;20180;-64
2022/09/29 07:53:26;;;;;;;7.72;3.42;;;;;;;19.02;100.00;93866.38;5090899;28;20293;-64
2022/09/29 07:55:51;;;;;;;4.80;2.35;;;;;;;19.20;100.00;93910.34;5090987;28;20184;-64
2022/09/29 07:58:17;;;;;;;3.88;2.35;;;;;;;19.14;100.00;93857.03;5073067;28;20203;-63
2022/09/29 08:00:42;;;;;;;6.47;2.85;;;;;;;19.31;100.00;93894.25;5090844;28;20678;-64
2022/09/29 08:03:09;;;;;;;8.73;2.53;;;;;;;19.40;100.00;93967.84;5090793;28;20556;-63
2022/09/29 08:05:34;;;;;;;6.25;2.78;;;;;;;19.54;100.00;93914.47;5090800;28;20215;-64
2022/09/29 08:08:01;;;;;;;5.97;2.50;;;;;;;19.76;100.00;93926.13;5091064;28;20172;-64
2022/09/29 08:10:28;;;;;;;4.47;2.88;;;;;;;20.00;100.00;93964.94;5090861;28;20269;-64
2022/09/29 08:12:54;;;;;;;4.18;2.95;;;;;;;20.14;100.00;93976.00;5090639;28;20208;-61
2022/09/29 08:15:20;;;;;;;8.15;2.58;;;;;;;19.85;100.00;93955.88;5090572;28;20226;-62
2022/09/29 08:17:46;;;;;;;5.80;2.25;;;;;;;19.77;100.00;93971.56;5090588;28;20191;-61
2022/09/29 08:20:11;;;;;;;5.13;2.00;;;;;;;20.06;100.00;93989.13;5072541;28;20216;-61
2022/09/29 08:22:37;;;;;;;8.57;2.75;;;;;;;20.17;100.00;94037.56;5090826;28;20210;-61
2022/09/29 08:25:02;;;;;;;8.25;2.55;;;;;;;20.14;100.00;94026.84;5090799;28;20243;-61
2022/09/29 08:27:28;;;;;;;6.15;2.75;;;;;;;20.18;100.00;94015.91;5090787;28;20192;-60
2022/09/29 08:29:53;;;;;;;6.80;2.50;;;;;;;20.16;100.00;94040.34;5090762;28;20219;-62
2022/09/29 08:32:19;;;;;;;5.07;2.20;;;;;;;20.44;100.00;94064.13;5090535;28;20551;-62
2022/09/29 08:34:44;;;;;;;6.38;2.60;;;;;;;20.22;100.00;94044.72;5090533;28;20265;-61
2022/09/29 08:37:10;;;;;;;8.40;2.42;;;;;;;20.14;99.04;94063.75;5090717;28;20564;-62
2022/09/29 08:39:36;;;;;;;6.07;2.75;;;;;;;20.42;99.14;94066.88;5090853;28;20215;-62
2022/09/29 08:42:18;;;;;;;9.55;2.55;;;;;;;21.04;98.42;94081.78;5090436;28;20199;-63
2022/09/29 08:44:59;;;;;;;4.03;2.33;;;;;;;21.12;96.73;94102.22;5090645;28;20242;-63
2022/09/29 08:47:24;;;;;;;4.57;2.10;;;;;;;21.39;96.56;94095.84;5090488;28;20198;-61
2022/09/29 08:50:01;;;;;;;7.43;2.08;;;;;;;21.98;94.50;94131.69;5090413;28;20299;-64
2022/09/29 08:52:34;;;;;;;5.13;2.40;;;;;;;22.30;93.16;94135.78;5090287;28;20220;-60
2022/09/29 08:55:15;;;;;;;4.00;2.53;;;;;;;22.29;100.00;93959.88;5089964;28;20723;-60
2022/09/29 08:57:42;;;;;;;4.63;2.03;;;;;;;22.01;97.02;94047.63;5090020;28;20184;-61
2022/09/29 09:00:12;;;;;;;11.98;2.97;;;;;;;22.06;95.09;94076.25;5071891;28;20238;-62
2022/09/29 09:02:46;;;;;;;7.20;3.30;;;;;;;22.00;93.70;94096.00;5093411;28;20192;-62
2022/09/29 09:05:45;;;;;;;5.25;2.35;;;;;;;21.60;96.09;94041.19;5093896;28;20239;-62
2022/09/29 09:08:20;;;;;;;8.60;2.78;;;;;;;21.28;96.65;94024.13;5093587;28;20193;-60
2022/09/29 09:10:53;;;;;;;6.72;2.40;;;;;;;21.24;98.38;93984.19;5093476;28;20282;-62
2022/09/29 09:13:33;;;;;;;4.90;2.15;;;;;;;21.43;97.79;94003.13;5093418;28;20196;-61
2022/09/29 09:16:20;;;;;;;3.50;2.60;;;;;;;21.47;98.51;93984.38;5075178;28;20192;-63
2022/09/29 09:18:54;;;;;;;7.13;2.63;;;;;;;22.10;95.66;94057.47;5093615;28;20208;-61
2022/09/29 09:21:48;;;;;;;8.40;2.83;;;;;;;22.62;94.22;94087.25;5093426;28;20195;-62
2022/09/29 09:24:17;;;;;;;4.15;2.40;;;;;;;22.80;90.54;94146.84;5089281;28;20579;-61
2022/09/29 09:26:45;;;;;;;8.02;2.03;;;;;;;22.81;87.85;94197.69;5093325;28;20180;-60
2022/09/29 09:29:24;;;;;;;11.00;2.33;;;;;;;23.41;86.79;94201.22;5074926;28;20204;-63
2022/09/29 09:32:04;;;;;;;7.30;2.20;;;;;;;23.57;86.74;94202.41;5093032;28;20196;-63
2022/09/29 09:34:42;;;;;;;6.22;2.00;;;;;;;23.79;77.35;94234.66;5093297;28;20212;-63
2022/09/29 09:37:20;;;;;;;4.88;2.00;;;;;;;24.50;68.15;94232.81;5093484;28;20198;-62
2022/09/29 09:40:03;;;;;;;6.20;2.25;;;;;;;24.94;63.82;94281.69;5092958;28;20203;-61
2022/09/29 09:42:41;;;;;;;4.75;2.20;;;;;;;25.06;64.07;94257.47;5093163;28;20191;-62
2022/09/29 09:45:29;;;;;;;3.25;1.85;;;;;;;25.14;60.12;94325.56;5092683;28;20212;-62
2022/09/29 09:48:13;;;;;;;7.03;1.90;;;;;;;25.54;60.78;94198.88;5081469;28;20200;-62
2022/09/29 09:50:41;;;;;;;8.25;1.90;;;;;;;26.01;59.25;94224.72;5092584;28;20238;-61
2022/09/29 09:53:30;;;;;;;4.93;2.00;;;;;;;25.99;57.35;94264.03;5092545;28;20204;-62
2022/09/29 09:56:37;;;;;;;4.22;1.77;;;;;;;25.75;56.28;94262.56;5092381;28;20204;-61
2022/09/29 09:59:20;;;;;;;6.35;2.10;;;;;;;26.25;56.81;94234.00;5047571;28;20230;-62
2022/09/29 10:01:45;;;;;;;7.78;2.47;;;;;;;26.49;53.54;94313.69;5092316;28;20218;-60
2022/09/29 10:04:12;;;;;;;4.80;1.95;;;;;;;26.69;56.48;94216.69;5092315;28;20603;-61
2022/09/29 10:06:37;;;;;;;2.85;1.60;;;;;;;26.93;54.51;94271.09;5092257;28;20180;-63
2022/09/29 10:09:03;;;;;;;3.65;1.73;;;;;;;27.33;51.27;94346.59;5092094;28;20196;-62
2022/09/29 10:11:32;;;;;;;3.90;1.90;;;;;;;27.67;52.64;94295.88;5091633;28;20681;-63
2022/09/29 10:14:24;;;;;;;6.80;2.10;;;;;;;27.47;51.74;94307.88;5091458;28;20204;-61
2022/09/29 10:16:58;;;;;;;7.40;1.70;;;;;;;27.61;51.72;94303.88;5092214;28;20199;-62
2022/09/29 10:20:04;;;;;;;3.85;2.00;;;;;;;27.58;47.32;94414.88;5091835;28;20200;-61
2022/09/29 10:22:31;;;;;;;6.88;2.15;;;;;;;27.02;48.75;94336.72;5091907;28;20196;-62
2022/09/29 10:25:15;;;;;;;4.75;2.00;;;;;;;27.34;48.93;94306.41;5091851;28;20226;-61
2022/09/29 10:27:54;;;;;;;2.70;1.58;;;;;;;27.53;50.54;94276.38;5073818;28;20612;-61
2022/09/29 10:30:23;;;;;;;5.50;1.48;;;;;;;27.68;46.83;94361.97;5091737;28;20215;-61
2022/09/29 10:33:01;;;;;;;3.80;1.60;;;;;;;27.91;47.05;94356.50;5091855;28;20743;-61
2022/09/29 10:35:40;;;;;;;3.90;1.58;;;;;;;28.28;46.36;94361.94;5091897;28;20227;-60
2022/09/29 10:38:17;;;;;;;9.70;1.90;;;;;;;28.54;44.76;94418.72;5091662;28;20218;-63
2022/09/29 10:41:01;;;;;;;3.50;1.70;;;;;;;28.56;41.10;94497.78;5091625;28;20311;-61
2022/09/29 10:43:39;;;;;;;3.92;2.15;;;;;;;28.07;44.40;94366.94;5073543;28;20184;-62
2022/09/29 10:46:36;;;;;;;3.15;1.80;;;;;;;27.70;42.52;94418.19;5091830;28;20188;-61
2022/09/29 10:49:17;;;;;;;7.07;5.32;;;;;;;27.48;43.42;94362.50;5091688;28;20219;-61
2022/09/29 10:51:55;;;;;;;2.33;1.40;;;;;;;26.84;44.42;94316.09;5073508;28;20199;-62
2022/09/29 10:54:26;;;;;;;4.68;1.92;;;;;;;25.77;44.39;94289.16;5091324;28;20719;-61
2022/09/29 10:56:54;;;;;;;4.13;1.77;;;;;;;25.82;45.01;94278.81;5091646;28;20189;-61
2022/09/29 10:59:22;;;;;;;2.97;1.70;;;;;;;26.01;45.79;94246.34;5091370;28;20307;-61
2022/09/29 11:01:50;;;;;;;4.70;2.05;;;;;;;26.03;44.25;94295.63;5091526;28;20265;-61
2022/09/29 11:04:31;;;;;;;3.63;2.03;;;;;;;25.49;44.88;94279.47;5091629;28;20207;-62
2022/09/29 11:07:05;;;;;;;3.85;1.60;;;;;;;24.84;45.49;94239.84;5091635;28;20191;-62
2022/09/29 11:09:42;;;;;;;4.15;1.70;;;;;;;24.80;47.19;94194.53;5073291;28;20187;-61
2022/09/29 11:12:30;;;;;;;4.78;2.25;;;;;;;24.72;46.35;94205.25;5073109;28;20276;-63
2022/09/29 11:14:57;;;;;;;3.25;1.58;;;;;;;24.52;46.79;94193.59;5091161;28;20205;-62
2022/09/29 11:17:39;;;;;;;3.08;2.15;;;;;;;24.45;49.45;94128.72;5091374;28;20185;-63
2022/09/29 11:20:13;;;;;;;4.20;2.17;;;;;;;24.28;48.85;94147.81;5091034;28;20361;-63
2022/09/29 11:22:50;;;;;;;4.40;2.22;;;;;;;24.13;50.30;94099.72;5091118;28;20688;-63
2022/09/29 11:25:49;;;;;;;2.53;2.33;;;;;;;23.74;51.32;94063.16;5090839;28;20211;-63
2022/09/29 11:28:45;;;;;;;5.60;2.20;;;;;;;23.55;50.57;94072.88;5072529;28;21271;-62
2022/09/29 11:31:36;;;;;;;2.13;1.80;;;;;;;23.51;50.52;94081.31;5091018;28;20184;-64
2022/09/29 11:34:22;;;;;;;3.35;1.83;;;;;;;23.38;51.24;94065.94;5090920;28;20224;-63
2022/09/29 11:36:56;;;;;;;5.00;2.05;;;;;;;23.57;50.68;94077.81;5091074;28;20241;-62
2022/09/29 11:39:33;;;;;;;4.82;2.10;;;;;;;23.52;51.33;94054.34;5090806;28;20215;-63
2022/09/29 11:42:22;;;;;;;2.90;1.88;;;;;;;23.53;51.16;94063.72;5072800;28;20221;-63
2022/09/29 11:44:48;;;;;;;5.25;2.05;;;;;;;23.37;51.13;94064.34;5091226;28;20231;-63
2022/09/29 11:47:19;;;;;;;2.58;1.95;;;;;;;23.26;51.74;94048.50;5072703;28;20230;-62